Terminal Aerodrome Forecast
Issued by NWS Duluth, MN

Home | Current Version | Previous Version | Text Only | Print | Product List | Glossary Off
Versions: 1 2 3 4 5 6 7 8 9 10 11 12 13 14 15 16 17 18 19 20 21

000
FTUS43 KDLH 291135
TAFINL
TAF
KINL 291135Z 2912/3012 24018G30KT P6SM VCSH SCT015 OVC025
      TEMPO 2912/2916 -RA OVC018
     FM291600 26020G30KT P6SM VCSH OVC020
     FM292100 28020G30KT P6SM VCSH OVC040
     FM300300 29010G18KT P6SM FEW050=

USA.gov is the U.S. government's official web portal to all federal, state and local government web resources and services.